Time;durP1;ratioP1;P1;durP2;ratioP2;P2;SDS_P1;SDS_P2;PMS_P1;PMS_P2;Temp;Humidity;BMP_temperature;BMP_pressure;BME280_temperature;BME280_humidity;BME280_pressure;Samples;Min_cycle;Max_cycle;Signal;HPM_P1;HPM_P2
2021/09/24 00:00:25;;;;;;;17.75;6.10;;;;;;;24.60;43.71;100816.75;4423092;32;20079;-70
2021/09/24 00:02:51;;;;;;;19.98;6.00;;;;;;;24.67;43.62;100808.38;4423520;32;20391;-70
2021/09/24 00:05:17;;;;;;;16.87;5.93;;;;;;;24.63;43.55;100802.09;4423700;32;20130;-70
2021/09/24 00:07:43;;;;;;;25.88;7.37;;;;;;;24.57;43.87;100804.22;4425035;32;20742;-70
2021/09/24 00:10:10;;;;;;;19.37;7.43;;;;;;;24.70;43.55;100797.91;4425784;32;20033;-70
2021/09/24 00:12:37;;;;;;;25.67;8.27;;;;;;;24.71;43.61;100793.69;4425516;32;20041;-70
2021/09/24 00:15:04;;;;;;;23.23;7.68;;;;;;;24.45;43.89;100785.47;4423862;32;20029;-70
2021/09/24 00:17:30;;;;;;;24.15;8.73;;;;;;;24.52;43.97;100789.91;4421732;32;20454;-70
2021/09/24 00:19:55;;;;;;;27.00;10.00;;;;;;;24.41;44.03;100779.25;4423516;32;20268;-70
2021/09/24 00:22:21;;;;;;;37.45;11.68;;;;;;;24.32;44.27;100779.56;4423181;32;21129;-70
2021/09/24 00:24:48;;;;;;;27.80;10.20;;;;;;;23.93;45.10;100781.84;4425038;32;20080;-70
2021/09/24 00:27:13;;;;;;;23.33;9.65;;;;;;;23.96;44.96;100775.06;4424010;32;20042;-70
2021/09/24 00:29:39;;;;;;;25.20;8.18;;;;;;;23.89;45.23;100774.81;4426021;32;20470;-70
2021/09/24 00:32:05;;;;;;;24.98;9.00;;;;;;;23.86;45.11;100775.87;4424045;32;20109;-70
2021/09/24 00:34:31;;;;;;;28.05;8.60;;;;;;;23.87;45.28;100766.72;4421985;32;20103;-70
2021/09/24 00:36:57;;;;;;;21.00;7.80;;;;;;;23.87;45.14;100763.09;4423189;32;20060;-70
2021/09/24 00:39:23;;;;;;;21.23;7.70;;;;;;;23.95;45.10;100756.25;4425986;32;20473;-70
2021/09/24 00:41:49;;;;;;;25.50;7.68;;;;;;;23.86;45.23;100758.63;4425999;32;20034;-70
2021/09/24 00:44:15;;;;;;;22.02;6.72;;;;;;;23.86;45.21;100742.16;4425196;32;20442;-70
2021/09/24 00:46:40;;;;;;;22.77;6.60;;;;;;;24.01;44.87;100742.63;4423640;32;20056;-70
2021/09/24 00:49:06;;;;;;;26.50;6.90;;;;;;;24.05;44.71;100737.38;4423254;32;20049;-70
2021/09/24 00:51:32;;;;;;;20.20;6.25;;;;;;;24.04;44.75;100735.03;4424770;32;20399;-70
2021/09/24 00:53:58;;;;;;;24.20;6.93;;;;;;;23.77;45.30;100733.84;4421819;32;20471;-70
2021/09/24 00:56:24;;;;;;;25.17;6.95;;;;;;;23.87;45.17;100726.47;4421585;32;20044;-70
2021/09/24 00:58:50;;;;;;;25.10;6.95;;;;;;;23.72;45.32;100723.19;4424232;32;20431;-70
2021/09/24 01:01:15;;;;;;;25.12;6.97;;;;;;;23.77;45.22;100722.38;4425437;32;20073;-70
2021/09/24 01:03:41;;;;;;;25.60;6.80;;;;;;;23.76;45.23;100717.94;4422477;32;20037;-70
2021/09/24 01:06:07;;;;;;;21.92;6.55;;;;;;;23.76;45.26;100717.94;4423948;32;20037;-70
2021/09/24 01:08:33;;;;;;;21.45;6.37;;;;;;;23.68;45.53;100711.16;4423429;32;20100;-70
2021/09/24 01:10:59;;;;;;;24.67;6.82;;;;;;;23.68;45.40;100716.91;4426088;32;20078;-69
2021/09/24 01:13:25;;;;;;;27.58;6.90;;;;;;;23.64;45.63;100713.56;4424293;32;20081;-70
2021/09/24 01:15:51;;;;;;;24.10;6.85;;;;;;;23.71;45.49;100704.38;4422769;32;20077;-70
2021/09/24 01:18:17;;;;;;;27.10;7.32;;;;;;;23.68;45.27;100707.53;4422316;32;20111;-69
2021/09/24 01:20:43;;;;;;;23.77;6.93;;;;;;;23.63;45.44;100703.38;4422022;32;20073;-69
2021/09/24 01:23:09;;;;;;;20.37;6.45;;;;;;;23.65;45.39;100703.62;4423444;32;20478;-69
2021/09/24 01:25:34;;;;;;;21.00;6.60;;;;;;;23.66;45.34;100698.66;4423098;32;20064;-70
2021/09/24 01:28:00;;;;;;;20.90;6.32;;;;;;;23.64;45.35;100701.28;4424646;32;20081;-70
2021/09/24 01:30:26;;;;;;;21.62;6.53;;;;;;;23.58;45.48;100695.56;4423350;32;20099;-70
2021/09/24 01:32:52;;;;;;;18.25;5.40;;;;;;;23.51;45.62;100691.13;4424173;32;20118;-70
2021/09/24 01:35:18;;;;;;;14.87;6.12;;;;;;;23.55;45.58;100688.00;4424641;32;20225;-70
2021/09/24 01:37:45;;;;;;;25.70;6.00;;;;;;;23.52;45.52;100680.44;4421594;32;20167;-70
2021/09/24 01:40:14;;;;;;;18.52;5.82;;;;;;;23.57;45.55;100681.72;4424339;32;20070;-70
2021/09/24 01:42:41;;;;;;;16.25;5.03;;;;;;;23.62;45.44;100678.81;4424038;32;20079;-70
2021/09/24 01:45:08;;;;;;;23.33;5.55;;;;;;;23.40;45.70;100668.22;4425355;32;20049;-70
2021/09/24 01:47:34;;;;;;;14.35;4.95;;;;;;;23.48;45.45;100669.22;4422367;32;20050;-70
2021/09/24 01:50:01;;;;;;;20.23;5.65;;;;;;;23.41;45.54;100657.53;4419562;32;20055;-70
2021/09/24 01:52:28;;;;;;;18.17;4.82;;;;;;;23.27;45.80;100661.50;4422120;32;20346;-70
2021/09/24 01:54:55;;;;;;;18.08;4.65;;;;;;;23.28;45.74;100654.44;4421982;32;20073;-70
2021/09/24 01:57:20;;;;;;;16.95;4.40;;;;;;;23.25;45.76;100650.53;4424792;32;20093;-70
2021/09/24 01:59:46;;;;;;;26.83;4.87;;;;;;;23.17;45.88;100645.84;4422822;32;20073;-70
2021/09/24 02:02:12;;;;;;;15.82;5.07;;;;;;;23.20;45.89;100636.19;4424486;32;20126;-70
2021/09/24 02:04:37;;;;;;;22.70;4.85;;;;;;;23.14;45.83;100630.44;4422312;32;20118;-70
2021/09/24 02:07:04;;;;;;;13.98;3.80;;;;;;;23.11;46.00;100631.50;4423210;32;20046;-70
2021/09/24 02:09:29;;;;;;;17.83;5.22;;;;;;;23.07;46.02;100621.62;4424756;32;20072;-70
2021/09/24 02:11:55;;;;;;;14.13;3.90;;;;;;;23.08;45.99;100623.97;4422981;32;20129;-70
2021/09/24 02:14:22;;;;;;;16.52;3.92;;;;;;;22.99;46.21;100627.13;4423564;32;20074;-70
2021/09/24 02:16:48;;;;;;;12.70;3.50;;;;;;;23.13;46.03;100620.28;4425259;32;20046;-70
2021/09/24 02:19:14;;;;;;;19.70;4.12;;;;;;;22.94;46.29;100624.28;4422936;32;20064;-69
2021/09/24 02:21:40;;;;;;;16.90;3.75;;;;;;;22.84;46.37;100611.53;4422128;32;20038;-69
2021/09/24 02:24:05;;;;;;;16.80;4.03;;;;;;;22.92;46.22;100606.81;4422393;32;20542;-69
2021/09/24 02:26:31;;;;;;;10.77;3.15;;;;;;;22.95;46.11;100606.53;4426993;32;20095;-69
2021/09/24 02:28:56;;;;;;;14.13;3.40;;;;;;;22.89;46.14;100607.88;4426608;32;20143;-70
2021/09/24 02:31:22;;;;;;;14.35;3.60;;;;;;;22.71;46.34;100609.22;4426130;32;20029;-70
2021/09/24 02:33:48;;;;;;;15.85;3.35;;;;;;;22.68;46.50;100609.50;4425685;32;20084;-70
2021/09/24 02:36:14;;;;;;;14.63;3.22;;;;;;;22.44;46.90;100600.63;4425016;32;20520;-70
2021/09/24 02:38:40;;;;;;;13.25;3.70;;;;;;;22.34;47.23;100605.88;4422275;32;20113;-70
2021/09/24 02:41:06;;;;;;;17.00;3.70;;;;;;;22.58;46.81;100608.22;4425536;32;20562;-70
2021/09/24 02:43:32;;;;;;;17.52;3.40;;;;;;;22.51;46.85;100603.00;4424651;32;20096;-70
2021/09/24 02:45:58;;;;;;;11.27;2.90;;;;;;;22.71;46.49;100609.22;4425242;32;20917;-70
2021/09/24 02:48:23;;;;;;;16.70;3.35;;;;;;;22.63;46.47;100608.19;4423018;32;20146;-70
2021/09/24 02:50:49;;;;;;;11.82;3.42;;;;;;;22.33;47.17;100604.31;4424666;32;20066;-70
2021/09/24 02:53:15;;;;;;;21.62;3.97;;;;;;;22.28;47.34;100605.12;4428547;32;20085;-70
2021/09/24 02:55:40;;;;;;;13.90;3.72;;;;;;;22.27;47.40;100614.22;4426097;32;20098;-70
2021/09/24 02:58:06;;;;;;;19.27;4.35;;;;;;;22.43;47.02;100608.44;4427950;32;20108;-70
2021/09/24 03:00:32;;;;;;;16.15;4.07;;;;;;;22.48;46.68;100598.28;4424008;32;20092;-70
2021/09/24 03:02:57;;;;;;;18.52;4.45;;;;;;;22.16;47.64;100599.91;4424846;32;20342;-70
2021/09/24 03:05:24;;;;;;;14.43;4.00;;;;;;;21.77;48.44;100590.50;4425172;32;20099;-70
2021/09/24 03:07:50;;;;;;;16.85;4.40;;;;;;;22.04;47.85;100584.00;4423946;32;20156;-70
2021/09/24 03:10:16;;;;;;;15.98;4.12;;;;;;;21.89;48.08;100581.41;4426388;32;20480;-70
2021/09/24 03:12:42;;;;;;;13.43;4.15;;;;;;;22.05;47.70;100574.88;4427843;32;20384;-70
2021/09/24 03:15:10;;;;;;;24.17;4.22;;;;;;;22.11;47.70;100572.81;4425856;32;20099;-70
2021/09/24 03:17:36;;;;;;;15.95;4.53;;;;;;;22.17;47.72;100567.06;4424321;32;20038;-70
2021/09/24 03:20:04;;;;;;;14.32;4.62;;;;;;;22.08;47.73;100564.47;4423592;32;20104;-70
2021/09/24 03:22:30;;;;;;;19.80;4.53;;;;;;;22.14;47.36;100571.75;4427186;32;20128;-70
2021/09/24 03:24:56;;;;;;;19.80;5.12;;;;;;;22.03;47.67;100576.72;4427395;32;20022;-69
2021/09/24 03:27:22;;;;;;;14.82;4.45;;;;;;;21.93;47.86;100579.06;4425734;32;20089;-70
2021/09/24 03:29:48;;;;;;;16.55;5.05;;;;;;;22.04;47.73;100584.78;4426445;32;20405;-70
2021/09/24 03:32:18;;;;;;;15.82;5.95;;;;;;;21.97;47.81;100585.31;4424968;32;20333;-70
2021/09/24 03:34:45;;;;;;;19.58;5.97;;;;;;;21.81;48.40;100580.34;4424179;32;20509;-70
2021/09/24 03:37:11;;;;;;;22.52;6.43;;;;;;;21.89;48.27;100575.69;4425459;32;20096;-70
2021/09/24 03:39:37;;;;;;;17.25;7.55;;;;;;;21.37;49.50;100566.75;4425508;32;20497;-70
2021/09/24 03:42:04;;;;;;;17.45;6.93;;;;;;;21.16;50.23;100579.69;4426471;32;20431;-70
2021/09/24 03:44:31;;;;;;;22.10;7.70;;;;;;;21.35;49.88;100575.06;4423427;32;20097;-70
2021/09/24 03:46:56;;;;;;;23.42;7.10;;;;;;;21.40;49.67;100571.44;4425508;32;20092;-70
2021/09/24 03:49:23;;;;;;;22.15;7.05;;;;;;;21.56;49.29;100564.94;4423402;32;20420;-70
2021/09/24 03:51:50;;;;;;;21.75;7.18;;;;;;;21.55;49.25;100566.25;4425021;32;20449;-70
2021/09/24 03:54:16;;;;;;;22.58;7.18;;;;;;;21.17;50.30;100558.34;4424005;32;20330;-70
2021/09/24 03:56:43;;;;;;;13.25;6.40;;;;;;;21.29;50.15;100562.81;4427102;32;20113;-70
2021/09/24 03:59:10;;;;;;;18.85;6.60;;;;;;;21.30;50.06;100558.66;4425378;32;20145;-70
2021/09/24 04:01:37;;;;;;;19.12;6.97;;;;;;;21.20;50.45;100556.56;4424898;32;20034;-69
2021/09/24 04:04:02;;;;;;;19.33;6.93;;;;;;;21.11;50.82;100560.41;4422902;32;20038;-69
2021/09/24 04:06:28;;;;;;;17.75;6.78;;;;;;;20.61;51.91;100553.69;4425503;32;20088;-69
2021/09/24 04:08:54;;;;;;;30.55;7.72;;;;;;;21.00;51.13;100557.53;4425701;32;20044;-69
2021/09/24 04:11:20;;;;;;;16.83;7.12;;;;;;;20.78;51.59;100560.28;4424724;32;20087;-69
2021/09/24 04:13:45;;;;;;;16.48;7.07;;;;;;;20.83;51.67;100555.87;4425089;32;20029;-70
2021/09/24 04:16:11;;;;;;;15.55;6.30;;;;;;;20.96;51.19;100541.91;4424583;32;20129;-70
2021/09/24 04:18:36;;;;;;;19.45;7.10;;;;;;;21.13;50.80;100545.59;4423354;32;20049;-70
2021/09/24 04:21:02;;;;;;;11.02;6.45;;;;;;;21.36;50.10;100541.50;4425159;32;20055;-70
2021/09/24 04:23:29;;;;;;;13.80;6.50;;;;;;;21.52;49.68;100532.16;4423671;32;20084;-70
2021/09/24 04:25:54;;;;;;;16.92;7.20;;;;;;;21.74;49.27;100531.38;4426156;32;20604;-70
2021/09/24 04:28:21;;;;;;;18.70;7.25;;;;;;;21.54;49.66;100527.44;4422834;32;20117;-70
2021/09/24 04:30:46;;;;;;;13.35;6.90;;;;;;;21.77;49.17;100534.00;4423515;32;20419;-70
2021/09/24 04:33:12;;;;;;;18.40;8.13;;;;;;;21.78;48.95;100531.94;4423520;32;20072;-70
2021/09/24 04:35:38;;;;;;;17.02;8.18;;;;;;;21.83;48.90;100525.41;4424682;32;20399;-70
2021/09/24 04:38:03;;;;;;;18.10;8.07;;;;;;;21.99;48.51;100513.16;4425665;32;20076;-70
2021/09/24 04:40:29;;;;;;;18.75;8.30;;;;;;;22.13;48.10;100530.06;4425049;32;20090;-70
2021/09/24 04:42:55;;;;;;;15.65;7.45;;;;;;;22.33;47.92;100534.72;4425617;32;20524;-70
2021/09/24 04:45:22;;;;;;;20.17;7.05;;;;;;;22.39;47.47;100526.88;4425123;32;20057;-70
2021/09/24 04:47:47;;;;;;;16.10;7.28;;;;;;;22.57;47.03;100532.06;4422905;32;21399;-70
2021/09/24 04:50:13;;;;;;;17.35;6.62;;;;;;;22.48;47.13;100520.84;4422381;32;20026;-70
2021/09/24 04:52:39;;;;;;;17.95;6.47;;;;;;;22.52;46.95;100525.03;4426163;32;20037;-70
2021/09/24 04:55:07;;;;;;;12.98;5.80;;;;;;;22.81;46.58;100529.38;4424151;32;20392;-70
2021/09/24 04:57:34;;;;;;;12.57;5.87;;;;;;;23.08;45.91;100529.25;4423816;32;20040;-70
2021/09/24 04:59:59;;;;;;;12.10;6.22;;;;;;;23.16;45.56;100523.69;4423188;32;21225;-69
2021/09/24 05:02:25;;;;;;;15.10;5.70;;;;;;;23.00;45.81;100516.75;4421825;32;20160;-69
2021/09/24 05:04:50;;;;;;;11.30;5.75;;;;;;;23.17;45.45;100516.66;4419192;32;20030;-70
2021/09/24 05:07:16;;;;;;;12.68;4.75;;;;;;;23.04;45.72;100511.50;4424834;32;20437;-70
2021/09/24 05:09:42;;;;;;;11.80;5.47;;;;;;;22.99;45.93;100515.19;4422687;32;20064;-70
2021/09/24 05:12:08;;;;;;;14.95;5.40;;;;;;;22.89;46.01;100513.94;4424826;32;20076;-70
2021/09/24 05:14:34;;;;;;;8.85;4.65;;;;;;;23.18;45.56;100504.66;4423433;32;20034;-70
2021/09/24 05:17:01;;;;;;;10.45;4.68;;;;;;;23.08;45.77;100506.28;4423890;32;20087;-70
2021/09/24 05:19:27;;;;;;;12.15;4.78;;;;;;;23.28;45.14;100499.38;4422743;32;20679;-70
2021/09/24 05:21:53;;;;;;;8.18;4.00;;;;;;;23.33;45.00;100501.44;4425929;32;20086;-70
2021/09/24 05:24:19;;;;;;;8.60;4.40;;;;;;;23.55;44.90;100507.03;4424689;32;20085;-70
2021/09/24 05:26:44;;;;;;;8.52;4.35;;;;;;;23.77;44.31;100500.31;4426359;32;20224;-70
2021/09/24 05:29:10;;;;;;;11.95;4.18;;;;;;;23.93;44.04;100488.66;4425717;32;20059;-70
2021/09/24 05:31:36;;;;;;;13.85;4.45;;;;;;;24.00;43.90;100488.09;4420040;32;20462;-70
2021/09/24 05:34:02;;;;;;;10.98;5.03;;;;;;;24.17;43.48;100482.94;4423673;32;20071;-70
2021/09/24 05:36:28;;;;;;;10.70;4.07;;;;;;;24.18;43.42;100489.50;4422409;32;20103;-70
2021/09/24 05:38:55;;;;;;;8.20;3.50;;;;;;;24.29;43.30;100486.47;4424867;32;21165;-70
2021/09/24 05:41:20;;;;;;;9.52;3.20;;;;;;;24.30;43.29;100497.44;4423883;32;20506;-70
2021/09/24 05:43:50;;;;;;;6.85;3.50;;;;;;;24.35;42.86;100508.13;4425225;32;20466;-70
2021/09/24 05:46:16;;;;;;;9.60;2.78;;;;;;;24.50;42.68;100508.47;4425448;32;20112;-70
2021/09/24 05:48:42;;;;;;;7.57;3.15;;;;;;;24.06;42.83;100491.72;4420120;32;20242;-70
2021/09/24 05:51:08;;;;;;;10.38;3.97;;;;;;;23.90;43.25;100481.09;4422650;32;20118;-70
2021/09/24 05:53:34;;;;;;;10.73;4.57;;;;;;;23.45;44.45;100477.87;4424498;32;20668;-70
2021/09/24 05:56:00;;;;;;;12.82;4.47;;;;;;;23.35;44.78;100481.59;4424805;32;20073;-70
2021/09/24 05:58:25;;;;;;;9.98;4.37;;;;;;;23.33;44.81;100476.38;4424328;32;20072;-70
2021/09/24 06:00:51;;;;;;;12.52;4.68;;;;;;;23.24;44.95;100467.31;4430017;32;20034;-70
2021/09/24 06:03:17;;;;;;;10.02;4.05;;;;;;;23.23;45.13;100474.34;4427424;32;20084;-70
2021/09/24 06:05:43;;;;;;;8.43;4.40;;;;;;;23.14;45.25;100468.91;4427505;32;20441;-70
2021/09/24 06:08:09;;;;;;;10.05;4.25;;;;;;;23.17;45.24;100494.44;4425310;32;20060;-70
2021/09/24 06:10:38;;;;;;;12.00;4.10;;;;;;;23.46;44.48;100498.72;4422128;32;20034;-70
2021/09/24 06:13:04;;;;;;;12.73;4.00;;;;;;;23.77;43.80;100492.47;4426161;32;20061;-69
2021/09/24 06:15:29;;;;;;;10.75;4.15;;;;;;;23.84;43.59;100479.62;4429637;32;20097;-69
2021/09/24 06:17:55;;;;;;;14.30;5.40;;;;;;;24.04;42.78;100487.78;4425739;32;20034;-69
2021/09/24 06:20:21;;;;;;;12.25;5.78;;;;;;;24.03;43.06;100478.41;4425155;32;20021;-69
2021/09/24 06:22:47;;;;;;;8.60;4.65;;;;;;;24.33;42.51;100487.72;4425107;32;20111;-69
2021/09/24 06:25:14;;;;;;;11.27;5.37;;;;;;;24.27;42.58;100489.88;4422987;32;20145;-69
2021/09/24 06:27:40;;;;;;;11.75;4.60;;;;;;;24.20;42.81;100487.63;4424832;32;20358;-69
2021/09/24 06:30:08;;;;;;;12.30;4.05;;;;;;;24.29;42.52;100495.91;4419993;32;20092;-70
2021/09/24 06:32:34;;;;;;;10.50;3.85;;;;;;;24.30;42.10;100485.19;4422523;32;20077;-69
2021/09/24 06:34:59;;;;;;;14.52;4.50;;;;;;;23.91;42.93;100490.50;4423736;32;20084;-69
2021/09/24 06:37:25;;;;;;;12.05;5.10;;;;;;;24.11;42.59;100482.22;4421512;32;20026;-69
2021/09/24 06:39:51;;;;;;;11.35;5.12;;;;;;;23.92;43.03;100481.34;4425283;32;20097;-69
2021/09/24 06:42:18;;;;;;;12.43;5.12;;;;;;;23.91;43.06;100474.06;4416227;32;20076;-69
2021/09/24 06:44:44;;;;;;;13.35;5.65;;;;;;;23.84;43.03;100468.88;4408365;32;20081;-69
2021/09/24 06:47:12;;;;;;;13.70;6.32;;;;;;;23.73;43.48;100466.12;4422014;32;20426;-69
2021/09/24 06:49:38;;;;;;;14.25;5.70;;;;;;;23.72;43.77;100463.78;4412875;32;20152;-69
2021/09/24 06:52:05;;;;;;;13.07;5.57;;;;;;;23.57;43.95;100472.00;4415595;32;20564;-69
2021/09/24 06:54:32;;;;;;;12.32;5.90;;;;;;;23.66;43.76;100475.34;4414953;32;20063;-69
2021/09/24 06:56:58;;;;;;;12.30;5.68;;;;;;;23.61;43.77;100476.16;4407834;32;20409;-69
2021/09/24 06:59:24;;;;;;;16.27;6.43;;;;;;;23.63;43.75;100479.28;4415557;32;20041;-69
2021/09/24 07:01:49;;;;;;;12.25;5.60;;;;;;;23.36;44.25;100480.28;4411988;32;20038;-69
2021/09/24 07:04:15;;;;;;;14.68;5.85;;;;;;;23.74;43.30;100479.16;4415166;32;20034;-70
2021/09/24 07:06:42;;;;;;;13.70;5.12;;;;;;;23.64;43.49;100477.97;4411109;32;20352;-69
2021/09/24 07:09:08;;;;;;;12.10;5.78;;;;;;;23.64;43.35;100463.59;4417335;32;20102;-69
2021/09/24 07:11:36;;;;;;;11.12;4.90;;;;;;;23.97;42.68;100459.66;4412763;32;20128;-69
2021/09/24 07:14:08;;;;;;;12.65;4.97;;;;;;;24.23;41.83;100463.53;4411587;32;20119;-69
2021/09/24 07:16:35;;;;;;;13.52;4.20;;;;;;;24.07;42.47;100452.22;4407769;32;20065;-69
2021/09/24 07:19:02;;;;;;;11.35;4.05;;;;;;;24.13;42.23;100447.97;4409188;32;20045;-69
2021/09/24 07:21:27;;;;;;;10.88;4.10;;;;;;;24.23;41.94;100443.41;4403495;32;20138;-69
2021/09/24 07:23:53;;;;;;;14.57;3.80;;;;;;;24.07;41.97;100437.84;4402144;32;20133;-69
2021/09/24 07:26:20;;;;;;;9.68;3.47;;;;;;;24.11;41.79;100453.47;4407467;32;20130;-69
2021/09/24 07:28:46;;;;;;;15.90;4.32;;;;;;;23.91;42.20;100462.56;4407383;32;20400;-69
2021/09/24 07:31:11;;;;;;;10.52;3.58;;;;;;;23.94;41.89;100455.72;4410046;32;20578;-71
2021/09/24 07:33:37;;;;;;;9.23;3.45;;;;;;;23.98;41.65;100449.69;4410011;32;20069;-69
2021/09/24 07:36:03;;;;;;;8.70;3.40;;;;;;;24.36;41.05;100462.88;4409788;32;20094;-69
2021/09/24 07:38:29;;;;;;;13.62;3.50;;;;;;;24.48;41.06;100464.31;4406175;32;20081;-70
2021/09/24 07:40:55;;;;;;;12.15;3.85;;;;;;;24.27;41.40;100463.25;4408118;32;20068;-70
2021/09/24 07:43:20;;;;;;;7.82;3.30;;;;;;;24.27;41.34;100458.25;4408088;32;20146;-70
2021/09/24 07:45:47;;;;;;;11.18;3.37;;;;;;;24.36;40.87;100457.87;4410969;32;20074;-69
2021/09/24 07:48:13;;;;;;;11.30;2.70;;;;;;;24.29;41.26;100464.25;4411498;32;20069;-70
2021/09/24 07:50:38;;;;;;;10.50;3.17;;;;;;;24.19;41.40;100460.19;4410977;32;21672;-71
2021/09/24 07:53:04;;;;;;;8.63;3.10;;;;;;;24.26;41.41;100461.66;4410571;32;20137;-70
2021/09/24 07:55:30;;;;;;;8.75;3.28;;;;;;;24.16;41.52;100458.41;4403169;32;20042;-70
2021/09/24 07:57:56;;;;;;;12.40;2.85;;;;;;;24.60;40.76;100451.31;4412013;32;20077;-70
2021/09/24 08:00:23;;;;;;;8.95;2.53;;;;;;;24.38;41.15;100443.75;4405983;32;20099;-70
2021/09/24 08:02:50;;;;;;;7.32;2.50;;;;;;;24.42;41.10;100447.09;4411207;32;20076;-71
2021/09/24 08:05:17;;;;;;;8.63;2.62;;;;;;;24.35;41.34;100439.09;4410553;32;20200;-71
2021/09/24 08:07:43;;;;;;;10.30;2.28;;;;;;;24.86;40.77;100428.50;4408824;32;20103;-70
2021/09/24 08:10:10;;;;;;;11.48;2.33;;;;;;;24.88;40.51;100443.91;4409913;32;21266;-71
2021/09/24 08:12:35;;;;;;;9.18;2.03;;;;;;;25.11;40.41;100416.34;4410472;32;20073;-70
2021/09/24 08:15:01;;;;;;;19.40;3.40;;;;;;;25.10;40.47;100422.66;4409244;32;20074;-70
2021/09/24 08:17:27;;;;;;;9.27;2.30;;;;;;;25.60;39.68;100425.50;4410405;32;20674;-70
2021/09/24 08:19:52;;;;;;;10.98;2.35;;;;;;;25.84;39.54;100430.31;4407353;32;20746;-70
2021/09/24 08:22:18;;;;;;;4.62;1.80;;;;;;;25.72;39.96;100431.84;4407931;32;20088;-70
2021/09/24 08:24:44;;;;;;;6.45;2.15;;;;;;;26.33;39.02;100445.91;4406202;32;20135;-70
2021/09/24 08:27:11;;;;;;;8.13;2.62;;;;;;;26.79;38.10;100453.87;4407001;32;20095;-70
2021/09/24 08:29:37;;;;;;;9.88;2.15;;;;;;;26.54;38.35;100459.09;4408391;32;20495;-70
2021/09/24 08:32:04;;;;;;;11.43;2.53;;;;;;;26.29;39.09;100459.91;4404697;32;20452;-70
2021/09/24 08:34:30;;;;;;;9.02;2.75;;;;;;;26.18;39.45;100471.63;4408459;32;20077;-70
2021/09/24 08:36:55;;;;;;;7.05;2.35;;;;;;;25.80;39.99;100470.22;4406809;32;20512;-70
2021/09/24 08:39:21;;;;;;;9.00;2.42;;;;;;;25.95;39.52;100473.38;4404787;32;20077;-70
2021/09/24 08:41:47;;;;;;;10.90;2.78;;;;;;;25.99;39.70;100477.50;4403549;32;20107;-70
2021/09/24 08:44:13;;;;;;;6.75;2.50;;;;;;;25.88;40.04;100480.56;4405811;32;20054;-70
2021/09/24 08:46:38;;;;;;;6.47;2.08;;;;;;;25.95;40.14;100473.38;4408740;32;20434;-70
2021/09/24 08:49:05;;;;;;;11.93;2.95;;;;;;;26.35;39.46;100469.97;4406373;32;20042;-70
2021/09/24 08:51:34;;;;;;;9.60;2.67;;;;;;;26.50;39.33;100469.41;4401737;32;20081;-71
2021/09/24 08:54:01;;;;;;;8.40;2.45;;;;;;;26.95;38.40;100473.72;4410407;32;20057;-69
2021/09/24 08:56:26;;;;;;;9.95;2.22;;;;;;;26.83;38.60;100477.41;4408852;32;20096;-71
2021/09/24 08:58:52;;;;;;;6.95;2.55;;;;;;;26.80;38.65;100472.75;4409296;32;20053;-71
2021/09/24 09:01:18;;;;;;;6.68;2.05;;;;;;;26.69;38.99;100476.66;4408369;32;20454;-70
2021/09/24 09:03:46;;;;;;;4.70;2.03;;;;;;;26.22;40.01;100472.88;4408290;32;20353;-71
2021/09/24 09:06:15;;;;;;;11.95;2.83;;;;;;;26.29;39.98;100477.22;4406962;32;20096;-71
2021/09/24 09:08:41;;;;;;;9.77;2.95;;;;;;;26.44;40.07;100491.84;4407577;32;20313;-70
2021/09/24 09:13:55;;;;;;;7.87;2.53;;;;;;;27.26;38.66;100483.53;3973671;32;15088915;-71
2021/09/24 09:21:44;;;;;;;5.90;2.37;;;;;;;27.91;37.60;100476.69;3971050;32;15022330;-70
2021/09/24 09:27:17;;;;;;;8.18;2.25;;;;;;;28.86;36.29;100488.75;3989756;31;15015657;-71
2021/09/24 09:32:34;;;;;;;7.60;2.20;;;;;;;28.26;37.44;100482.53;3932753;32;15025282;-71
2021/09/24 09:35:00;;;;;;;9.05;2.70;;;;;;;28.26;37.44;100482.53;4392919;32;20120;-71
2021/09/24 09:37:26;;;;;;;11.00;5.05;;;;;;;27.73;38.76;100490.00;4394807;32;20077;-70
2021/09/24 09:40:03;;;;;;;8.80;2.45;;;;;;;27.91;38.95;100476.69;4392536;32;20157;-71
2021/09/24 09:42:33;;;;;;;6.80;2.20;;;;;;;27.91;38.51;100485.34;4392796;32;20483;-71
2021/09/24 09:44:59;;;;;;;5.97;2.55;;;;;;;27.71;38.72;100484.00;4394548;32;20138;-70
2021/09/24 09:47:29;;;;;;;8.55;2.15;;;;;;;27.03;39.98;100470.94;4395068;32;20070;-70
2021/09/24 09:50:16;;;;;;;7.45;2.95;;;;;;;27.18;40.29;100468.19;4395377;32;20135;-71
2021/09/24 09:55:36;;;;;;;4.57;2.05;;;;;;;27.31;40.33;100471.09;3975535;32;15029525;-71
2021/09/24 09:58:06;;;;;;;4.57;1.98;;;;;;;27.54;40.18;100465.50;4425520;32;20075;-70
2021/09/24 10:00:35;;;;;;;9.18;2.17;;;;;;;27.73;39.88;100483.47;4426707;32;20041;-70
2021/09/24 10:05:43;;;;;;;3.78;1.80;;;;;;;28.33;39.58;100490.53;3970314;32;15024815;-71
2021/09/24 10:08:27;;;;;;;4.15;1.92;;;;;;;28.33;39.58;100490.53;4426438;32;20082;-72
2021/09/24 10:11:04;;;;;;;7.25;2.20;;;;;;;28.29;39.27;100486.44;4423506;32;20077;-71
2021/09/24 10:13:48;;;;;;;4.28;1.60;;;;;;;28.18;39.31;100472.28;4425595;32;20105;-70
2021/09/24 10:16:14;;;;;;;4.87;1.67;;;;;;;28.91;38.08;100467.53;4427754;32;20081;-70
2021/09/24 10:18:40;;;;;;;5.30;1.77;;;;;;;29.06;38.01;100477.63;4422992;32;20096;-70
2021/09/24 10:21:07;;;;;;;5.18;1.60;;;;;;;28.47;38.89;100482.53;4423757;32;20461;-70
2021/09/24 10:23:33;;;;;;;5.45;1.50;;;;;;;28.93;38.28;100479.28;4423756;32;20446;-72
2021/09/24 10:26:09;;;;;;;9.10;1.70;;;;;;;28.77;38.62;100479.78;4425460;32;20824;-71
2021/09/24 10:28:38;;;;;;;3.12;1.35;;;;;;;28.78;38.85;100478.47;4424671;32;20069;-71
2021/09/24 10:31:05;;;;;;;6.90;1.48;;;;;;;29.30;38.45;100474.25;4423300;32;20061;-70
2021/09/24 10:33:52;;;;;;;3.30;1.33;;;;;;;29.58;37.73;100465.41;4424417;32;20033;-70
2021/09/24 10:39:36;;;;;;;3.53;1.20;;;;;;;29.89;37.39;100464.09;3973026;32;15025376;-71
2021/09/24 11:01:12;;;;;;;6.37;1.10;;;;;;;30.18;37.96;100448.00;3954303;32;15024839;-70
2021/09/24 11:04:02;;;;;;;4.85;1.08;;;;;;;30.18;37.96;100448.00;4398143;32;20090;-70
2021/09/24 11:06:46;;;;;;;2.62;1.05;;;;;;;30.14;37.91;100450.53;4402504;32;20524;-71
2021/09/24 11:09:14;;;;;;;2.65;1.10;;;;;;;29.76;38.74;100444.00;4401121;32;20042;-70
2021/09/24 11:11:43;;;;;;;6.40;1.17;;;;;;;29.02;40.27;100452.69;4406650;32;20104;-71
2021/09/24 11:14:30;;;;;;;6.12;1.17;;;;;;;28.95;40.56;100441.84;4404122;32;20551;-71
2021/09/24 11:16:57;;;;;;;5.10;1.83;;;;;;;29.39;39.88;100457.03;4402247;32;20081;-71
2021/09/24 11:19:36;;;;;;;5.97;1.50;;;;;;;29.25;40.65;100469.38;4404768;32;20094;-71
2021/09/24 11:22:09;;;;;;;5.05;1.60;;;;;;;29.77;39.63;100468.72;4403520;32;20485;-71
2021/09/24 11:24:37;;;;;;;2.25;1.42;;;;;;;29.90;39.45;100462.72;4401170;32;20484;-71
2021/09/24 11:27:09;;;;;;;2.28;1.92;;;;;;;29.41;40.29;100465.94;4407013;32;20458;-72
2021/09/24 11:29:41;;;;;;;6.87;2.50;;;;;;;28.68;41.73;100462.94;4403610;32;20088;-71
2021/09/24 11:32:10;;;;;;;5.72;2.22;;;;;;;29.06;41.18;100463.16;4405243;32;20095;-71
2021/09/24 11:37:29;;;;;;;7.37;3.20;;;;;;;29.33;40.48;100459.38;3981703;31;15014792;-70
2021/09/24 11:42:39;;;;;;;6.45;2.45;;;;;;;28.99;40.83;100462.50;3973834;32;15022237;-70
2021/09/24 11:45:09;;;;;;;7.12;2.65;;;;;;;28.99;40.83;100462.50;4425152;32;20084;-71
2021/09/24 11:47:40;;;;;;;9.80;2.97;;;;;;;28.67;41.25;100461.41;4426521;32;20381;-70
2021/09/24 11:52:52;;;;;;;4.18;3.00;;;;;;;29.00;40.92;100446.66;3945624;32;15723581;-71
2021/09/24 12:00:35;;;;;;;4.70;2.95;;;;;;;28.82;41.37;100447.00;3956404;32;15026247;-70
2021/09/24 12:08:40;;;;;;;7.37;3.65;;;;;;;28.34;42.15;100457.34;3978715;32;15021865;-70
2021/09/24 12:11:10;;;;;;;8.50;4.15;;;;;;;28.38;42.39;100462.78;4434447;32;20029;-70
2021/09/24 12:24:33;;;;;;;8.85;4.40;;;;;;;28.36;43.17;100456.78;3982099;32;15023922;-70
2021/09/24 12:29:50;;;;;;;12.98;4.00;;;;;;;27.91;43.67;100456.44;3972455;32;15023081;-72
2021/09/24 12:32:19;;;;;;;6.65;4.43;;;;;;;27.91;43.62;100447.75;4427912;32;20203;-69